Time;durP1;ratioP1;P1;durP2;ratioP2;P2;SDS_P1;SDS_P2;PMS_P1;PMS_P2;Temp;Humidity;BMP_temperature;BMP_pressure;BME280_temperature;BME280_humidity;BME280_pressure;Samples;Min_cycle;Max_cycle;Signal;HPM_P1;HPM_P2
2021/09/11 00:02:14;;;;;;;4.93;4.43;;;20.30;99.90;;;;;;5038997;28;20451;-71
2021/09/11 00:04:45;;;;;;;4.50;4.20;;;20.30;99.90;;;;;;5039977;28;20245;-72
2021/09/11 00:07:11;;;;;;;4.50;4.07;;;20.30;99.90;;;;;;5039642;28;20163;-71
2021/09/11 00:09:36;;;;;;;5.20;4.73;;;20.20;99.90;;;;;;5058533;28;20427;-71
2021/09/11 00:12:02;;;;;;;5.13;4.53;;;20.20;99.90;;;;;;5059184;28;20285;-71
2021/09/11 00:14:28;;;;;;;5.03;4.63;;;20.20;99.90;;;;;;5059903;28;20541;-71
2021/09/11 00:16:53;;;;;;;4.60;4.20;;;20.10;99.90;;;;;;5059745;28;20405;-71
2021/09/11 00:19:19;;;;;;;5.07;4.60;;;20.10;99.90;;;;;;5056503;28;20163;-72
2021/09/11 00:21:44;;;;;;;6.57;4.60;;;20.10;99.90;;;;;;5059153;28;20190;-71
2021/09/11 00:24:10;;;;;;;4.10;3.80;;;20.10;99.90;;;;;;5058670;28;20209;-71
2021/09/11 00:26:35;;;;;;;4.80;4.40;;;20.10;99.90;;;;;;5059346;28;20216;-71
2021/09/11 00:29:01;;;;;;;4.77;4.37;;;20.20;99.90;;;;;;5057378;28;20178;-71
2021/09/11 00:31:26;;;;;;;4.27;3.90;;;20.10;99.90;;;;;;5058278;28;20197;-71
2021/09/11 00:33:52;;;;;;;4.60;4.20;;;20.20;99.90;;;;;;5059112;28;20174;-72
2021/09/11 00:36:18;;;;;;;4.83;4.37;;;20.20;99.90;;;;;;5059338;28;20178;-71
2021/09/11 00:38:44;;;;;;;5.00;4.50;;;20.20;99.90;;;;;;5058352;28;20190;-71
2021/09/11 00:41:09;;;;;;;6.63;4.47;;;20.20;99.90;;;;;;5056782;28;20264;-72
2021/09/11 00:43:44;;;;;;;4.77;4.37;;;20.20;99.90;;;;;;5044939;28;20516;-72
2021/09/11 00:46:10;;;;;;;4.90;4.50;;;20.20;99.90;;;;;;5038730;28;20178;-71
2021/09/11 00:48:36;;;;;;;4.40;4.00;;;20.20;99.90;;;;;;5038920;28;20952;-72
2021/09/11 00:51:01;;;;;;;6.63;5.50;;;20.30;99.90;;;;;;5038817;28;20257;-71
2021/09/11 00:53:27;;;;;;;6.07;4.77;;;20.30;99.90;;;;;;5041075;28;20179;-70
2021/09/11 00:55:52;;;;;;;5.80;5.30;;;20.30;99.90;;;;;;5038964;28;20437;-71
2021/09/11 00:58:18;;;;;;;4.77;4.37;;;20.30;99.90;;;;;;5040791;28;20181;-72
2021/09/11 01:00:44;;;;;;;5.07;4.60;;;20.20;99.90;;;;;;5055377;28;20206;-71
2021/09/11 01:03:10;;;;;;;5.07;4.73;;;20.20;99.90;;;;;;5048280;28;20182;-72
2021/09/11 01:05:35;;;;;;;5.60;5.20;;;20.30;99.90;;;;;;5066781;28;20399;-73
2021/09/11 01:08:01;;;;;;;5.70;5.10;;;20.30;99.90;;;;;;5078410;28;20203;-72
2021/09/11 01:10:26;;;;;;;5.13;4.73;;;20.30;99.90;;;;;;5071951;28;20571;-71
2021/09/11 01:12:52;;;;;;;5.73;5.23;;;20.30;99.90;;;;;;5057728;28;20198;-71
2021/09/11 01:15:18;;;;;;;4.90;4.40;;;20.20;99.90;;;;;;5055669;28;20589;-71
2021/09/11 01:17:45;;;;;;;5.00;4.60;;;20.10;99.90;;;;;;5058807;28;20411;-71
2021/09/11 01:20:11;;;;;;;5.60;5.10;;;20.10;99.90;;;;;;5057460;28;20171;-71
2021/09/11 01:22:37;;;;;;;7.50;5.87;;;20.10;99.90;;;;;;5057418;28;20420;-71
2021/09/11 01:25:05;;;;;;;6.07;5.40;;;20.20;99.90;;;;;;5055574;28;20867;-73
2021/09/11 01:27:31;;;;;;;5.75;5.25;;;20.20;99.90;;;;;;5057034;28;20412;-72
2021/09/11 01:29:58;;;;;;;5.60;5.10;;;20.20;99.90;;;;;;5055430;28;20196;-72
2021/09/11 01:32:25;;;;;;;5.60;5.20;;;20.20;99.90;;;;;;5056660;28;20488;-72
2021/09/11 01:34:51;;;;;;;5.80;5.30;;;20.20;99.90;;;;;;5057739;28;20409;-72
2021/09/11 01:37:18;;;;;;;7.30;5.90;;;20.20;99.90;;;;;;5055054;28;20419;-72
2021/09/11 01:39:47;;;;;;;6.50;5.90;;;20.20;99.90;;;;;;5056867;28;20170;-72
2021/09/11 01:42:17;;;;;;;5.57;5.07;;;20.20;99.90;;;;;;5056396;28;20451;-72
2021/09/11 01:44:45;;;;;;;6.20;5.70;;;20.20;99.90;;;;;;5056670;28;20449;-72
2021/09/11 01:47:11;;;;;;;6.77;6.23;;;20.20;99.90;;;;;;5054841;28;20408;-72
2021/09/11 01:49:36;;;;;;;7.23;6.13;;;20.10;99.90;;;;;;5051880;28;20508;-72
2021/09/11 01:52:02;;;;;;;9.40;7.10;;;20.20;99.90;;;;;;5044482;28;20918;-72
2021/09/11 01:54:28;;;;;;;7.03;6.43;;;20.10;99.90;;;;;;5056599;28;20257;-73
2021/09/11 01:56:53;;;;;;;8.00;7.20;;;20.10;99.90;;;;;;5054740;28;20258;-72
2021/09/11 01:59:19;;;;;;;7.73;7.03;;;20.10;99.90;;;;;;5056310;28;20175;-73
2021/09/11 02:01:44;;;;;;;8.20;7.30;;;20.00;99.90;;;;;;5056247;28;20312;-72
2021/09/11 02:04:09;;;;;;;8.93;8.03;;;20.00;99.90;;;;;;5056282;28;20257;-72
2021/09/11 02:06:35;;;;;;;12.30;11.20;;;20.00;99.90;;;;;;5055829;28;20195;-72
2021/09/11 02:09:00;;;;;;;12.50;11.30;;;19.90;99.90;;;;;;5041032;28;20171;-72
2021/09/11 02:11:26;;;;;;;13.00;11.17;;;19.90;99.90;;;;;;5034987;28;20203;-73
2021/09/11 02:13:51;;;;;;;12.43;11.33;;;19.80;99.90;;;;;;5036276;28;20178;-72
2021/09/11 02:16:17;;;;;;;13.40;11.97;;;19.80;99.90;;;;;;5036842;28;20174;-72
2021/09/11 02:18:42;;;;;;;12.40;11.37;;;19.80;99.90;;;;;;5036998;28;20182;-72
2021/09/11 02:21:08;;;;;;;14.57;13.00;;;19.80;99.90;;;;;;5035992;28;20191;-73
2021/09/11 02:23:34;;;;;;;12.47;11.27;;;19.80;99.90;;;;;;5036276;28;20676;-72
2021/09/11 02:25:59;;;;;;;14.63;13.30;;;19.80;99.90;;;;;;5036199;28;20212;-72
2021/09/11 02:28:25;;;;;;;17.33;15.60;;;19.80;99.90;;;;;;5035838;28;20178;-73
2021/09/11 02:30:50;;;;;;;15.90;14.30;;;19.70;99.90;;;;;;5037094;28;20237;-72
2021/09/11 02:33:16;;;;;;;17.00;15.20;;;19.70;99.90;;;;;;5036088;28;20576;-72
2021/09/11 02:35:41;;;;;;;17.03;15.30;;;19.70;99.90;;;;;;5036076;28;20167;-72
2021/09/11 02:38:07;;;;;;;17.80;15.63;;;19.70;99.90;;;;;;5036019;28;20166;-73
2021/09/11 02:40:32;;;;;;;17.73;15.93;;;19.60;99.90;;;;;;5036755;28;20548;-73
2021/09/11 02:42:58;;;;;;;19.33;17.50;;;19.70;99.90;;;;;;5040915;28;20428;-73
2021/09/11 02:45:23;;;;;;;18.50;16.50;;;19.80;99.90;;;;;;5055636;28;20419;-72
2021/09/11 02:47:49;;;;;;;20.43;17.70;;;19.80;99.90;;;;;;5056098;28;20201;-72
2021/09/11 02:50:14;;;;;;;19.63;17.63;;;19.70;99.90;;;;;;5055468;28;20240;-73
2021/09/11 02:52:40;;;;;;;20.20;18.17;;;19.70;99.90;;;;;;5055529;28;20439;-73
2021/09/11 02:55:06;;;;;;;19.53;17.43;;;19.70;99.90;;;;;;5053234;28;20428;-73
2021/09/11 02:57:31;;;;;;;19.40;17.30;;;19.70;99.90;;;;;;5036080;28;20254;-72
2021/09/11 02:59:57;;;;;;;19.77;17.27;;;19.60;99.90;;;;;;5035548;28;20440;-73
2021/09/11 03:02:22;;;;;;;18.53;16.63;;;19.60;99.90;;;;;;5041957;28;20178;-72
2021/09/11 03:04:48;;;;;;;19.20;17.10;;;19.70;99.90;;;;;;5055381;28;20236;-72
2021/09/11 03:07:13;;;;;;;19.60;17.60;;;19.70;99.90;;;;;;5055613;28;20615;-73
2021/09/11 03:09:39;;;;;;;18.67;16.67;;;19.60;99.90;;;;;;5053880;28;20190;-72
2021/09/11 03:12:05;;;;;;;19.90;17.83;;;19.70;99.90;;;;;;5055871;28;20205;-73
2021/09/11 03:14:31;;;;;;;21.10;18.80;;;19.60;99.90;;;;;;5037813;28;20418;-73
2021/09/11 03:16:56;;;;;;;21.43;19.30;;;19.60;99.90;;;;;;5035108;28;20177;-72
2021/09/11 03:19:22;;;;;;;19.73;17.63;;;19.50;99.90;;;;;;5035299;28;20178;-72
2021/09/11 03:21:47;;;;;;;19.87;17.77;;;19.60;99.90;;;;;;5035750;28;20240;-72
2021/09/11 03:24:13;;;;;;;22.47;19.50;;;19.60;99.90;;;;;;5038159;28;20528;-72
2021/09/11 03:26:38;;;;;;;19.03;17.00;;;19.60;99.90;;;;;;5039380;28;20181;-73
2021/09/11 03:29:04;;;;;;;21.50;19.20;;;19.60;99.90;;;;;;5039265;28;20186;-73
2021/09/11 03:31:29;;;;;;;20.37;17.77;;;19.60;99.90;;;;;;5039243;28;20219;-72
2021/09/11 03:33:55;;;;;;;22.43;18.30;;;19.60;99.90;;;;;;5038785;28;20170;-72
2021/09/11 03:36:20;;;;;;;21.57;19.27;;;19.60;99.90;;;;;;5039516;28;20402;-72
2021/09/11 03:38:46;;;;;;;21.03;18.83;;;19.60;99.90;;;;;;5039080;28;20405;-73
2021/09/11 03:41:11;;;;;;;21.10;18.77;;;19.60;99.90;;;;;;5038282;28;20551;-72
2021/09/11 03:43:37;;;;;;;21.70;18.40;;;19.60;99.90;;;;;;5039886;28;20171;-72
2021/09/11 03:46:02;;;;;;;20.53;17.07;;;19.50;99.90;;;;;;5040404;28;20190;-72
2021/09/11 03:48:28;;;;;;;20.10;17.80;;;19.60;99.90;;;;;;5038434;28;20175;-73
2021/09/11 03:50:54;;;;;;;24.33;19.33;;;19.60;99.90;;;;;;5042752;28;20238;-72
2021/09/11 03:53:19;;;;;;;23.33;19.60;;;19.60;99.90;;;;;;5047596;28;20209;-72
2021/09/11 03:55:45;;;;;;;25.33;17.87;;;19.60;99.90;;;;;;5041587;28;20179;-73
2021/09/11 03:58:11;;;;;;;24.87;21.70;;;19.60;99.90;;;;;;5037734;28;20414;-72
2021/09/11 04:00:36;;;;;;;26.17;18.93;;;19.60;99.90;;;;;;5038529;28;20207;-72
2021/09/11 04:03:02;;;;;;;21.03;17.13;;;19.60;99.90;;;;;;5041143;28;20171;-72
2021/09/11 04:05:27;;;;;;;22.20;19.60;;;19.60;99.90;;;;;;5042754;28;20539;-73
2021/09/11 04:07:53;;;;;;;22.03;19.53;;;19.60;99.90;;;;;;5042775;28;20268;-71
2021/09/11 04:10:18;;;;;;;22.73;18.43;;;19.60;99.90;;;;;;5040703;28;20203;-72
2021/09/11 04:12:44;;;;;;;22.87;18.40;;;19.60;99.90;;;;;;5039950;28;20229;-72
2021/09/11 04:15:09;;;;;;;24.37;20.47;;;19.60;99.90;;;;;;5047057;28;20193;-72
2021/09/11 04:17:35;;;;;;;23.93;20.27;;;19.60;99.90;;;;;;5059502;28;20193;-72
2021/09/11 04:20:01;;;;;;;27.17;21.07;;;19.50;99.90;;;;;;5050338;28;20187;-72
2021/09/11 04:22:26;;;;;;;23.30;19.93;;;19.60;99.90;;;;;;5054509;28;20177;-73
2021/09/11 04:24:52;;;;;;;24.03;20.03;;;19.60;99.90;;;;;;5060128;28;20190;-72
2021/09/11 04:27:17;;;;;;;23.53;19.40;;;19.60;99.90;;;;;;5046416;28;20271;-72
2021/09/11 04:29:43;;;;;;;22.50;18.87;;;19.50;99.90;;;;;;5038689;28;20179;-72
2021/09/11 04:32:08;;;;;;;19.77;17.63;;;19.50;99.90;;;;;;5038171;28;20202;-72
2021/09/11 04:34:34;;;;;;;18.10;14.97;;;19.40;99.90;;;;;;5040106;28;20179;-72
2021/09/11 04:36:59;;;;;;;17.40;15.17;;;19.40;99.90;;;;;;5037568;28;20186;-72
2021/09/11 04:39:25;;;;;;;15.77;14.10;;;19.40;99.90;;;;;;5038682;28;20573;-72
2021/09/11 04:41:50;;;;;;;16.30;13.50;;;19.30;99.90;;;;;;5037576;28;20710;-72
2021/09/11 04:44:16;;;;;;;14.80;12.30;;;19.30;99.90;;;;;;5038385;28;20171;-72
2021/09/11 04:46:41;;;;;;;14.53;13.03;;;19.30;99.90;;;;;;5037387;28;20254;-72
2021/09/11 04:49:07;;;;;;;16.07;13.10;;;19.10;99.90;;;;;;5037108;28;20182;-72
2021/09/11 04:51:32;;;;;;;15.23;13.50;;;18.90;99.90;;;;;;5036713;28;20250;-72
2021/09/11 04:53:58;;;;;;;15.03;12.87;;;18.80;99.90;;;;;;5039557;28;20182;-73
2021/09/11 04:56:24;;;;;;;13.63;12.33;;;18.80;99.90;;;;;;5038480;28;20174;-72
2021/09/11 04:58:49;;;;;;;13.03;11.73;;;18.70;99.90;;;;;;5038350;28;20406;-72
2021/09/11 05:01:15;;;;;;;14.17;11.93;;;18.80;99.90;;;;;;5037611;28;20680;-73
2021/09/11 05:03:40;;;;;;;12.83;11.50;;;18.80;99.90;;;;;;5038514;28;20665;-73
2021/09/11 05:06:06;;;;;;;14.20;12.70;;;18.90;99.90;;;;;;5038291;28;20214;-71
2021/09/11 05:08:31;;;;;;;11.50;9.90;;;18.80;99.90;;;;;;5036506;28;20603;-71
2021/09/11 05:10:57;;;;;;;11.33;9.53;;;18.90;99.90;;;;;;5036912;28;20668;-71
2021/09/11 05:13:22;;;;;;;11.33;10.07;;;18.90;99.90;;;;;;5037089;28;20697;-71
2021/09/11 05:15:48;;;;;;;9.40;8.50;;;18.90;99.90;;;;;;5038743;28;20221;-71
2021/09/11 05:18:13;;;;;;;10.30;9.20;;;18.90;99.90;;;;;;5037013;28;20175;-72
2021/09/11 05:20:39;;;;;;;9.47;8.40;;;19.00;99.90;;;;;;5037066;28;20557;-71
2021/09/11 05:23:04;;;;;;;8.70;7.80;;;18.90;99.90;;;;;;5037105;28;20213;-71
2021/09/11 05:25:30;;;;;;;8.80;7.57;;;19.00;99.90;;;;;;5038123;28;20191;-73
2021/09/11 05:27:55;;;;;;;10.63;8.23;;;19.00;99.90;;;;;;5037335;28;20254;-72
2021/09/11 05:30:21;;;;;;;10.77;6.93;;;19.00;99.90;;;;;;5037597;28;20643;-71
2021/09/11 05:32:47;;;;;;;10.30;9.20;;;19.00;99.90;;;;;;5036904;28;20429;-72
2021/09/11 05:35:12;;;;;;;9.30;8.37;;;19.00;99.90;;;;;;5036875;28;20906;-70
2021/09/11 05:37:38;;;;;;;8.83;7.93;;;19.00;99.90;;;;;;5038075;28;20250;-71
2021/09/11 05:40:05;;;;;;;8.77;7.73;;;19.00;99.90;;;;;;5038238;28;20163;-71
2021/09/11 05:42:31;;;;;;;8.90;8.10;;;19.00;99.90;;;;;;5040769;28;20786;-72
2021/09/11 05:44:59;;;;;;;7.87;6.70;;;18.90;99.90;;;;;;5047627;28;20421;-71
2021/09/11 05:47:25;;;;;;;8.40;7.60;;;18.90;99.90;;;;;;5041942;28;20430;-71
2021/09/11 05:49:50;;;;;;;8.67;7.37;;;18.90;99.90;;;;;;5050162;28;20515;-72
2021/09/11 05:52:16;;;;;;;9.10;7.10;;;19.00;99.90;;;;;;5046993;28;20996;-72
2021/09/11 05:54:41;;;;;;;9.00;6.87;;;19.00;99.90;;;;;;5044585;28;20190;-72
2021/09/11 05:57:07;;;;;;;7.87;6.20;;;19.00;99.90;;;;;;5046557;28;20170;-71
2021/09/11 05:59:33;;;;;;;9.17;6.43;;;19.10;99.90;;;;;;5048508;28;20994;-71
2021/09/11 06:01:58;;;;;;;7.63;6.10;;;19.00;99.90;;;;;;5047998;28;20213;-72
2021/09/11 06:04:24;;;;;;;7.68;6.93;;;19.00;99.90;;;;;;5045078;28;20530;-71
2021/09/11 06:06:49;;;;;;;7.87;6.13;;;19.00;99.90;;;;;;5049730;28;20686;-71
2021/09/11 06:09:15;;;;;;;6.20;5.70;;;19.00;99.90;;;;;;5037256;28;20197;-71
2021/09/11 06:11:40;;;;;;;7.27;5.50;;;18.90;99.90;;;;;;5035769;28;20741;-71
2021/09/11 06:14:06;;;;;;;6.50;5.50;;;18.90;99.90;;;;;;5036385;28;20167;-71
2021/09/11 06:16:31;;;;;;;8.00;5.50;;;18.90;99.90;;;;;;5035952;28;20163;-72
2021/09/11 06:18:58;;;;;;;6.00;5.40;;;19.00;99.90;;;;;;5036334;28;20199;-72
2021/09/11 06:21:23;;;;;;;6.07;4.73;;;19.00;99.90;;;;;;5035314;28;20644;-72
2021/09/11 06:23:49;;;;;;;5.67;5.17;;;19.00;99.90;;;;;;5034012;28;20420;-72
2021/09/11 06:26:14;;;;;;;6.03;5.43;;;19.10;99.90;;;;;;5034441;28;20421;-72
2021/09/11 06:28:40;;;;;;;7.73;5.77;;;19.10;99.90;;;;;;5040033;28;20737;-72
2021/09/11 06:31:05;;;;;;;6.63;5.83;;;19.10;99.90;;;;;;5052921;28;20197;-72
2021/09/11 06:33:31;;;;;;;6.40;5.40;;;19.00;99.90;;;;;;5056985;28;20210;-72
2021/09/11 06:35:56;;;;;;;6.97;5.00;;;19.10;99.90;;;;;;5059892;28;20178;-72
2021/09/11 06:38:22;;;;;;;5.40;4.90;;;19.20;99.90;;;;;;5033066;28;20683;-71
2021/09/11 06:40:47;;;;;;;5.43;4.93;;;19.30;99.90;;;;;;5053082;28;20197;-72
2021/09/11 06:43:13;;;;;;;4.77;4.23;;;19.40;99.90;;;;;;5051871;28;20219;-72
2021/09/11 06:45:39;;;;;;;6.90;5.30;;;19.50;99.90;;;;;;5056065;28;20694;-72
2021/09/11 06:48:04;;;;;;;7.87;4.40;;;19.40;99.90;;;;;;5055698;28;20205;-73
2021/09/11 06:50:30;;;;;;;4.77;4.37;;;19.40;99.90;;;;;;5055867;28;20348;-71
2021/09/11 06:52:56;;;;;;;5.83;5.23;;;19.60;99.90;;;;;;5055214;28;20225;-72
2021/09/11 06:55:21;;;;;;;8.40;5.43;;;19.50;99.90;;;;;;5053149;28;20324;-72
2021/09/11 06:57:47;;;;;;;5.60;5.10;;;19.60;99.90;;;;;;5058423;28;20205;-72
2021/09/11 07:00:13;;;;;;;5.93;5.10;;;19.60;99.90;;;;;;5058582;28;20899;-72
2021/09/11 07:02:38;;;;;;;7.03;4.20;;;19.50;99.90;;;;;;5053055;28;20702;-71
2021/09/11 07:05:05;;;;;;;6.70;4.80;;;19.40;99.90;;;;;;5052463;28;20515;-72
2021/09/11 07:07:31;;;;;;;4.85;4.43;;;19.60;99.90;;;;;;5050948;28;20448;-72
2021/09/11 07:09:57;;;;;;;5.63;5.00;;;19.70;99.90;;;;;;5053476;28;20205;-72
2021/09/11 07:12:23;;;;;;;6.03;5.13;;;19.70;99.90;;;;;;5054040;28;20499;-72
2021/09/11 07:14:49;;;;;;;7.43;4.80;;;19.60;99.90;;;;;;5052682;28;20596;-71
2021/09/11 07:17:14;;;;;;;4.90;4.40;;;19.70;99.90;;;;;;5052684;28;20218;-71
2021/09/11 07:19:40;;;;;;;7.00;5.10;;;19.80;99.90;;;;;;5055479;28;20800;-71
2021/09/11 07:22:06;;;;;;;4.80;4.40;;;19.80;99.90;;;;;;5053791;28;20229;-73
2021/09/11 07:24:32;;;;;;;5.57;4.27;;;19.80;99.90;;;;;;5056686;28;20228;-71
2021/09/11 07:26:57;;;;;;;6.93;4.67;;;19.80;99.90;;;;;;5059541;28;20284;-70
2021/09/11 07:29:23;;;;;;;5.27;4.77;;;19.70;99.90;;;;;;5058739;28;20651;-71
2021/09/11 07:31:48;;;;;;;5.00;4.00;;;19.70;99.90;;;;;;5068159;28;20216;-72
2021/09/11 07:34:14;;;;;;;5.83;4.10;;;19.80;99.90;;;;;;5074336;28;20656;-73
2021/09/11 07:36:40;;;;;;;5.50;5.00;;;19.80;99.90;;;;;;5053520;28;20647;-72
2021/09/11 07:39:05;;;;;;;5.60;4.43;;;19.80;99.90;;;;;;5075227;28;20225;-74
2021/09/11 07:41:32;;;;;;;4.20;3.80;;;19.80;99.90;;;;;;5073829;28;20475;-73
2021/09/11 07:43:58;;;;;;;4.70;4.30;;;20.00;99.90;;;;;;5061563;28;20216;-72
2021/09/11 07:46:24;;;;;;;5.47;4.00;;;19.90;99.90;;;;;;5057511;28;20444;-73
2021/09/11 07:48:49;;;;;;;5.70;4.03;;;20.00;99.90;;;;;;5059389;28;20513;-72
2021/09/11 07:51:15;;;;;;;4.23;3.70;;;20.10;99.90;;;;;;5057941;28;20308;-72
2021/09/11 07:53:41;;;;;;;5.77;3.63;;;20.10;99.90;;;;;;5058961;28;20221;-72
2021/09/11 07:56:07;;;;;;;3.10;2.80;;;20.10;99.90;;;;;;5059171;28;20280;-72
2021/09/11 07:58:33;;;;;;;3.03;2.83;;;20.10;99.90;;;;;;5057273;28;20224;-72
2021/09/11 08:01:00;;;;;;;3.77;3.17;;;20.00;99.90;;;;;;5059948;28;20424;-72
2021/09/11 08:03:28;;;;;;;3.70;3.40;;;19.90;99.90;;;;;;5059476;28;20451;-72
2021/09/11 08:05:55;;;;;;;4.07;3.27;;;19.80;99.90;;;;;;5051480;28;20434;-72
2021/09/11 08:08:21;;;;;;;4.30;3.90;;;19.80;99.90;;;;;;5050484;28;20482;-71
2021/09/11 08:10:47;;;;;;;4.80;4.00;;;19.80;99.90;;;;;;5056151;28;20470;-71
2021/09/11 08:13:15;;;;;;;3.27;2.90;;;19.80;99.90;;;;;;5059276;28;20925;-72
2021/09/11 08:15:42;;;;;;;3.40;2.90;;;19.90;99.90;;;;;;5059345;28;20664;-72
2021/09/11 08:18:07;;;;;;;4.90;2.60;;;19.90;99.90;;;;;;5057323;28;20548;-71
2021/09/11 08:20:35;;;;;;;3.20;2.70;;;20.10;99.90;;;;;;5057457;28;20542;-73
2021/09/11 08:23:02;;;;;;;5.23;3.23;;;20.20;99.90;;;;;;5058232;28;20606;-72
2021/09/11 08:25:27;;;;;;;5.10;2.77;;;20.30;99.90;;;;;;5058287;28;20443;-71
2021/09/11 08:27:53;;;;;;;2.77;2.37;;;20.40;99.90;;;;;;5058776;28;20456;-72
2021/09/11 08:30:18;;;;;;;2.13;1.93;;;20.50;99.90;;;;;;5057235;28;20240;-71
2021/09/11 08:32:44;;;;;;;5.60;2.10;;;20.50;99.90;;;;;;5056201;28;20436;-71
2021/09/11 08:35:12;;;;;;;4.27;2.37;;;20.50;99.90;;;;;;5058742;28;20215;-72
2021/09/11 08:37:38;;;;;;;2.97;1.87;;;20.70;99.90;;;;;;5053034;28;20258;-71
2021/09/11 08:40:04;;;;;;;2.30;1.97;;;20.50;99.90;;;;;;5057903;28;20502;-72
2021/09/11 08:42:30;;;;;;;2.07;1.97;;;20.60;99.90;;;;;;5057284;28;20203;-71
2021/09/11 08:44:56;;;;;;;2.30;2.20;;;20.60;99.90;;;;;;5058324;28;20989;-71
2021/09/11 08:47:22;;;;;;;2.53;1.57;;;20.60;99.90;;;;;;5057720;28;20197;-70
2021/09/11 08:49:47;;;;;;;2.40;2.20;;;20.60;99.90;;;;;;5058417;28;20448;-71
2021/09/11 08:52:13;;;;;;;1.90;1.80;;;20.50;99.90;;;;;;5057894;28;20296;-70
2021/09/11 08:54:38;;;;;;;2.30;2.10;;;20.50;99.90;;;;;;5057249;28;20310;-72
2021/09/11 08:57:23;;;;;;;2.83;2.20;;;20.50;99.90;;;;;;5057356;28;20190;-71
2021/09/11 08:59:49;;;;;;;2.20;2.00;;;20.50;99.90;;;;;;5055635;28;20316;-71
2021/09/11 09:02:17;;;;;;;4.27;2.27;;;20.60;99.90;;;;;;5057851;28;20476;-72
2021/09/11 09:04:47;;;;;;;3.73;2.50;;;20.70;99.90;;;;;;5057113;28;20469;-71
2021/09/11 09:07:40;;;;;;;3.20;2.57;;;20.80;99.90;;;;;;5057051;28;20968;-71
2021/09/11 09:10:15;;;;;;;2.50;2.30;;;20.90;99.90;;;;;;5056424;28;20495;-70
2021/09/11 09:12:43;;;;;;;6.30;2.63;;;20.90;99.90;;;;;;5057040;28;20476;-70
2021/09/11 09:15:17;;;;;;;2.97;2.70;;;20.90;99.90;;;;;;5055320;28;20418;-67
2021/09/11 09:17:52;;;;;;;3.97;2.90;;;20.80;99.90;;;;;;5057768;28;20415;-67
2021/09/11 09:20:29;;;;;;;5.60;2.53;;;20.70;99.90;;;;;;5055928;28;20296;-70
2021/09/11 09:22:57;;;;;;;2.90;2.60;;;20.80;99.90;;;;;;5054654;28;20447;-66
2021/09/11 09:25:37;;;;;;;2.77;2.50;;;20.80;99.90;;;;;;5053397;28;21048;-65
2021/09/11 09:28:16;;;;;;;3.13;2.40;;;21.00;99.90;;;;;;5057732;28;20523;-66
2021/09/11 09:30:49;;;;;;;3.10;2.80;;;21.20;99.90;;;;;;5056581;28;20491;-70
2021/09/11 09:33:20;;;;;;;3.45;3.00;;;21.30;99.90;;;;;;5055727;28;20451;-67
2021/09/11 09:35:46;;;;;;;3.80;2.73;;;21.50;99.90;;;;;;5057217;28;20210;-65
2021/09/11 09:38:12;;;;;;;3.03;2.50;;;21.60;99.90;;;;;;5051962;28;20452;-66
2021/09/11 09:40:39;;;;;;;2.53;2.33;;;21.80;99.90;;;;;;5056559;28;20833;-66
2021/09/11 09:43:06;;;;;;;6.50;2.60;;;21.90;99.90;;;;;;5054287;28;20286;-65
2021/09/11 09:45:33;;;;;;;2.40;2.00;;;22.00;99.90;;;;;;5050592;28;20597;-65
2021/09/11 09:48:02;;;;;;;2.63;2.03;;;22.10;99.90;;;;;;5058052;28;20428;-65
2021/09/11 09:50:37;;;;;;;8.23;1.83;;;22.20;99.90;;;;;;5055325;28;20532;-65
2021/09/11 09:53:03;;;;;;;2.90;2.60;;;22.40;99.90;;;;;;5051885;28;20487;-64
2021/09/11 09:55:28;;;;;;;4.30;2.00;;;22.40;99.90;;;;;;5054799;28;20456;-65
2021/09/11 09:57:55;;;;;;;2.20;2.10;;;22.50;99.90;;;;;;5055279;28;20538;-66
2021/09/11 10:00:22;;;;;;;2.63;2.40;;;22.40;99.90;;;;;;5053248;28;20459;-65
2021/09/11 10:02:47;;;;;;;2.60;2.37;;;22.40;99.90;;;;;;5059695;28;20486;-65
2021/09/11 10:05:15;;;;;;;2.60;2.40;;;22.40;99.90;;;;;;5057851;28;20487;-66
2021/09/11 10:08:07;;;;;;;2.77;2.57;;;22.40;99.90;;;;;;5059408;28;20201;-66
2021/09/11 10:10:45;;;;;;;3.50;2.60;;;22.40;99.90;;;;;;5060297;28;20467;-65
2021/09/11 10:13:16;;;;;;;2.80;2.60;;;22.50;99.90;;;;;;5059004;28;20248;-64
2021/09/11 10:16:06;;;;;;;3.20;2.43;;;22.30;99.90;;;;;;5054147;28;20835;-66
2021/09/11 10:18:35;;;;;;;2.40;2.20;;;22.20;99.90;;;;;;5058537;28;20431;-66
2021/09/11 10:21:37;;;;;;;2.97;2.60;;;22.20;99.90;;;;;;5057747;28;20854;-66
2021/09/11 10:24:02;;;;;;;2.73;2.53;;;22.10;99.90;;;;;;5057176;28;20984;-66
2021/09/11 10:26:46;;;;;;;3.20;2.90;;;22.10;99.90;;;;;;5055143;28;20460;-66
2021/09/11 10:29:30;;;;;;;3.03;2.83;;;22.00;99.90;;;;;;5057010;28;20683;-64
2021/09/11 10:32:15;;;;;;;3.20;2.50;;;22.10;99.90;;;;;;5057209;28;20491;-65
2021/09/11 10:34:53;;;;;;;2.27;2.07;;;22.30;99.90;;;;;;5056028;28;20458;-66
2021/09/11 10:37:37;;;;;;;3.13;2.27;;;22.50;99.90;;;;;;5050023;28;20458;-66
2021/09/11 10:40:15;;;;;;;2.70;2.23;;;22.60;99.90;;;;;;5054193;28;20816;-67
2021/09/11 10:43:05;;;;;;;4.60;2.00;;;22.70;99.90;;;;;;5056145;28;20734;-67
2021/09/11 10:45:42;;;;;;;2.47;2.27;;;22.80;99.90;;;;;;5054010;28;20431;-65
2021/09/11 10:48:29;;;;;;;2.83;2.50;;;22.90;99.90;;;;;;5061486;28;20459;-67
2021/09/11 10:50:55;;;;;;;2.40;2.20;;;22.80;99.90;;;;;;5061400;28;20489;-66
2021/09/11 10:53:23;;;;;;;3.20;2.23;;;22.70;99.90;;;;;;5058489;28;21081;-67
2021/09/11 10:55:50;;;;;;;2.50;2.27;;;22.80;99.90;;;;;;5063176;28;20475;-66
2021/09/11 10:58:25;;;;;;;2.97;2.47;;;22.70;99.90;;;;;;5056698;28;20520;-65
2021/09/11 11:00:58;;;;;;;2.40;2.20;;;22.80;99.90;;;;;;5045231;28;20206;-65
2021/09/11 11:03:24;;;;;;;2.83;2.40;;;22.80;99.90;;;;;;5049061;28;20827;-64
2021/09/11 11:06:04;;;;;;;3.70;2.60;;;22.80;99.90;;;;;;5056125;28;20452;-65
2021/09/11 11:08:30;;;;;;;3.40;3.10;;;22.70;99.90;;;;;;5054653;28;20185;-65
2021/09/11 11:10:56;;;;;;;3.47;3.17;;;22.70;99.90;;;;;;5054862;28;20451;-65
2021/09/11 11:13:22;;;;;;;2.43;2.20;;;22.60;99.90;;;;;;5054917;28;20470;-66
2021/09/11 11:15:57;;;;;;;3.77;2.80;;;22.70;99.90;;;;;;5055322;28;20451;-66
2021/09/11 11:18:27;;;;;;;3.00;2.80;;;22.80;99.90;;;;;;5057361;28;20404;-65
2021/09/11 11:20:53;;;;;;;2.93;2.70;;;22.80;99.90;;;;;;5057484;28;20950;-66
2021/09/11 11:23:18;;;;;;;3.97;3.23;;;22.90;99.90;;;;;;5058255;28;20524;-66
2021/09/11 11:25:44;;;;;;;3.78;2.95;;;23.00;99.90;;;;;;5054723;28;20939;-65
2021/09/11 11:28:11;;;;;;;3.13;2.93;;;23.00;99.90;;;;;;5059061;28;20178;-65
2021/09/11 11:30:40;;;;;;;3.10;2.80;;;22.70;99.90;;;;;;5057988;28;20202;-65
2021/09/11 11:33:06;;;;;;;3.50;3.20;;;22.70;99.90;;;;;;5058984;28;20468;-66
2021/09/11 11:35:33;;;;;;;3.20;2.90;;;22.70;99.90;;;;;;5057046;28;20443;-66
2021/09/11 11:37:59;;;;;;;4.00;3.20;;;22.70;99.90;;;;;;5057008;28;20490;-66
2021/09/11 11:40:26;;;;;;;3.80;3.50;;;22.60;99.90;;;;;;5057164;28;20456;-66
2021/09/11 11:42:52;;;;;;;3.83;3.50;;;22.60;99.90;;;;;;5054801;28;20205;-66
2021/09/11 11:45:17;;;;;;;4.17;3.87;;;22.60;99.90;;;;;;5057983;28;20478;-67
2021/09/11 11:48:05;;;;;;;5.50;4.23;;;22.70;99.90;;;;;;5060480;28;20194;-67
2021/09/11 11:50:39;;;;;;;4.60;4.20;;;22.50;99.90;;;;;;5061207;28;20336;-66
2021/09/11 11:53:10;;;;;;;4.20;3.90;;;22.50;99.90;;;;;;5061764;28;21111;-66
2021/09/11 11:55:39;;;;;;;4.50;4.13;;;22.50;99.90;;;;;;5060882;28;20480;-66
2021/09/11 11:58:18;;;;;;;4.40;4.10;;;22.40;99.90;;;;;;5060887;28;20423;-66
2021/09/11 12:00:54;;;;;;;3.93;3.63;;;22.40;99.90;;;;;;5061118;28;20518;-66
2021/09/11 12:03:41;;;;;;;5.53;5.03;;;22.40;99.90;;;;;;5060811;28;20821;-66
2021/09/11 12:06:23;;;;;;;5.40;4.97;;;22.30;99.90;;;;;;5056327;28;20976;-66
2021/09/11 12:08:49;;;;;;;4.40;4.00;;;22.40;99.90;;;;;;5056680;28;20448;-67
2021/09/11 12:11:20;;;;;;;4.80;4.37;;;22.30;99.90;;;;;;5060963;28;20440;-66
2021/09/11 12:13:48;;;;;;;4.90;4.47;;;22.40;99.90;;;;;;5062125;28;21254;-65
2021/09/11 12:16:15;;;;;;;3.90;3.60;;;22.50;99.90;;;;;;5060330;28;20477;-67
2021/09/11 12:18:40;;;;;;;3.90;3.60;;;22.50;99.90;;;;;;5059701;28;20425;-66
2021/09/11 12:21:11;;;;;;;3.80;3.50;;;22.60;99.90;;;;;;5061807;28;20920;-66
2021/09/11 12:23:38;;;;;;;4.20;3.63;;;22.60;99.90;;;;;;5061048;28;20290;-66
2021/09/11 12:26:10;;;;;;;4.50;3.47;;;22.50;99.90;;;;;;5061808;28;20441;-65
2021/09/11 12:28:51;;;;;;;8.13;4.57;;;22.50;99.90;;;;;;5061322;28;20867;-66
2021/09/11 12:31:20;;;;;;;5.00;4.50;;;22.50;99.90;;;;;;5058749;28;20439;-67
2021/09/11 12:34:03;;;;;;;5.20;4.80;;;22.50;99.90;;;;;;5061924;28;20416;-67
2021/09/11 12:36:30;;;;;;;4.57;4.20;;;22.40;99.90;;;;;;5061983;28;20432;-67
2021/09/11 12:38:59;;;;;;;5.13;4.60;;;22.20;99.90;;;;;;5060284;28;20507;-67
2021/09/11 12:41:25;;;;;;;5.23;4.50;;;22.20;99.90;;;;;;5058701;28;20866;-68
2021/09/11 12:43:50;;;;;;;4.80;4.40;;;22.20;99.90;;;;;;5060391;28;20429;-67